North Petersburg, New York
Current Conditions -  °F | °C
As of 6:52 PM on Friday 28 Nov 2014 (Local Time) from KAQW Reporting Station
Broken Clouds Broken Clouds  
Wind Chill: 12°   Ceiling: 5000
Heat Index: 23°   Visibility: 10mi
Dew Point: 16°   Wind: 12mph
Humidity: 74%   Direction: 260°W
Pressure: 30.17"   Gusts: 18mph
Location:  42.7192°N, 73.3641°W
Report Text: KAQW 282352Z AUTO 26010G16KT 10SM BKN050 M05/M09 A3017 RMK AO2 SLP228 60000 T10501089 11022 21050 53018
Loading
Personal Weather Stations






























Interactive Weather Map New forecast layout! Learn more

10-Day Weather Forecast

Advertisements
Track Severe Weather on mobile